Time;durP1;ratioP1;P1;durP2;ratioP2;P2;SDS_P1;SDS_P2;PMS_P1;PMS_P2;Temp;Humidity;BMP_temperature;BMP_pressure;BME280_temperature;BME280_humidity;BME280_pressure;Samples;Min_cycle;Max_cycle;Signal;HPM_P1;HPM_P2
2024/03/12 00:02:21;;;;;;;54.40;28.33;;;6.70;1.00;;;;;;4479999;27;656111;-73
2024/03/12 00:05:09;;;;;;;56.10;29.20;;;6.80;1.00;;;;;;4483621;27;656551;-72
2024/03/12 00:07:58;;;;;;;56.50;28.30;;;6.80;21.50;;;;;;4503169;27;655652;-73
2024/03/12 00:10:45;;;;;;;56.77;28.83;;;6.80;21.80;;;;;;4482800;27;658022;-73
2024/03/12 00:13:33;;;;;;;52.83;27.00;;;6.80;23.60;;;;;;4495672;27;656790;-73
2024/03/12 00:16:20;;;;;;;55.73;28.60;;;6.80;3.50;;;;;;4506373;27;657566;-73
2024/03/12 00:19:10;;;;;;;50.40;27.48;;;6.80;2.40;;;;;;4488900;27;655293;-73
2024/03/12 00:21:57;;;;;;;47.47;25.67;;;6.70;1.30;;;;;;4498786;27;655584;-73
2024/03/12 00:24:46;;;;;;;49.20;25.17;;;6.70;22.70;;;;;;4506701;27;655705;-73
2024/03/12 00:27:33;;;;;;;50.70;25.97;;;6.70;15.50;;;;;;4482720;27;656908;-73
2024/03/12 00:30:24;;;;;;;47.23;25.43;;;6.70;18.80;;;;;;4505300;27;657875;-73
2024/03/12 00:33:12;;;;;;;48.67;25.53;;;6.70;22.30;;;;;;4481228;27;655913;-73
2024/03/12 00:36:00;;;;;;;48.43;25.40;;;6.70;25.40;;;;;;4482648;27;656680;-73
2024/03/12 00:38:47;;;;;;;48.67;24.43;;;6.80;29.40;;;;;;4482139;27;657254;-73
2024/03/12 00:41:35;;;;;;;48.87;24.17;;;6.80;15.80;;;;;;4509014;27;657029;-73
2024/03/12 00:44:23;;;;;;;50.57;26.80;;;6.70;1.00;;;;;;4498722;27;656737;-73
2024/03/12 00:47:11;;;;;;;45.53;24.97;;;6.70;1.00;;;;;;4509912;27;656620;-73
2024/03/12 00:49:58;;;;;;;44.07;23.53;;;6.70;1.00;;;;;;4482958;27;655816;-73
2024/03/12 00:52:49;;;;;;;43.30;22.50;;;6.80;1.00;;;;;;4509432;27;656804;-73
2024/03/12 00:55:36;;;;;;;47.83;23.33;;;6.70;1.00;;;;;;4487590;27;655570;-73
2024/03/12 00:58:24;;;;;;;47.13;24.17;;;6.70;1.00;;;;;;4484627;27;655781;-73
2024/03/12 01:01:14;;;;;;;42.87;22.67;;;6.70;1.00;;;;;;4510966;27;655780;-73
2024/03/12 01:04:03;;;;;;;45.47;22.50;;;6.70;1.00;;;;;;4487853;27;656189;-73
2024/03/12 01:06:51;;;;;;;48.03;23.73;;;6.70;1.00;;;;;;4487916;27;656108;-73
2024/03/12 01:09:40;;;;;;;49.47;23.63;;;6.70;1.00;;;;;;4482773;27;655581;-73
2024/03/12 01:12:28;;;;;;;44.37;21.47;;;6.70;1.00;;;;;;4503993;27;655891;-73
2024/03/12 01:15:15;;;;;;;47.83;23.90;;;6.70;1.00;;;;;;4506855;27;657089;-73
2024/03/12 01:18:03;;;;;;;51.70;26.00;;;6.70;1.00;;;;;;4495604;27;655621;-73
2024/03/12 01:20:50;;;;;;;51.73;26.87;;;6.70;1.00;;;;;;4506741;27;656027;-73
2024/03/12 01:23:37;;;;;;;51.93;26.10;;;6.70;1.00;;;;;;4495641;27;655860;-73
2024/03/12 01:26:26;;;;;;;48.23;25.30;;;6.70;1.00;;;;;;4510875;27;655607;-73
2024/03/12 01:29:13;;;;;;;48.85;25.38;;;6.70;1.00;;;;;;4483012;27;655142;-73
2024/03/12 01:32:00;;;;;;;52.93;25.10;;;6.70;1.00;;;;;;4510673;27;656529;-73
2024/03/12 01:34:48;;;;;;;50.67;25.77;;;6.70;1.00;;;;;;4487252;27;656175;-73
2024/03/12 01:37:35;;;;;;;56.07;27.40;;;6.70;1.00;;;;;;4506211;27;656512;-73
2024/03/12 01:40:23;;;;;;;53.67;27.13;;;6.70;1.00;;;;;;4504205;27;656484;-73
2024/03/12 01:43:12;;;;;;;54.57;26.17;;;6.70;1.00;;;;;;4510383;27;655617;-73
2024/03/12 01:45:59;;;;;;;49.60;24.57;;;6.70;1.00;;;;;;4483415;27;656559;-73
2024/03/12 01:48:46;;;;;;;49.73;24.97;;;6.60;1.00;;;;;;4510377;27;655448;-73
2024/03/12 01:51:33;;;;;;;54.67;25.33;;;6.60;1.00;;;;;;4486119;27;656148;-73
2024/03/12 01:54:21;;;;;;;57.40;25.87;;;6.60;1.00;;;;;;4505791;27;656382;-73
2024/03/12 01:57:08;;;;;;;53.00;24.30;;;6.60;1.00;;;;;;4485815;27;655788;-73
2024/03/12 01:59:56;;;;;;;52.43;25.90;;;6.60;1.00;;;;;;4509252;27;656666;-73
2024/03/12 02:02:45;;;;;;;61.77;26.60;;;6.60;1.00;;;;;;4480894;27;655822;-73
2024/03/12 02:05:32;;;;;;;56.63;25.43;;;6.60;1.00;;;;;;4500065;27;655848;-73
2024/03/12 02:08:20;;;;;;;51.60;26.20;;;6.60;1.00;;;;;;4509154;27;655241;-73
2024/03/12 02:11:07;;;;;;;58.47;26.87;;;6.60;1.00;;;;;;4485503;27;656006;-73
2024/03/12 02:13:55;;;;;;;58.10;27.53;;;6.50;1.00;;;;;;4505998;27;656794;-73
2024/03/12 02:16:44;;;;;;;55.47;25.83;;;6.60;1.00;;;;;;4484897;27;656337;-73
2024/03/12 02:19:33;;;;;;;59.87;28.63;;;6.60;3.40;;;;;;4508307;27;655391;-73
2024/03/12 02:22:20;;;;;;;55.50;27.27;;;6.50;2.70;;;;;;4484956;27;656456;-73
2024/03/12 02:25:10;;;;;;;56.03;27.47;;;6.50;7.10;;;;;;4484368;27;655783;-73
2024/03/12 02:27:57;;;;;;;57.03;26.23;;;6.50;18.10;;;;;;4490186;27;656127;-73
2024/03/12 02:30:45;;;;;;;63.97;28.00;;;6.50;23.80;;;;;;4506846;27;657396;-74
2024/03/12 02:33:32;;;;;;;59.50;27.27;;;6.60;28.50;;;;;;4506895;27;656859;-73
2024/03/12 02:36:20;;;;;;;61.17;26.73;;;6.50;28.50;;;;;;4483878;27;657534;-74
2024/03/12 02:39:07;;;;;;;59.43;26.10;;;6.50;50.50;;;;;;4501265;27;656176;-73
2024/03/12 02:41:56;;;;;;;52.33;25.52;;;6.50;59.40;;;;;;4507175;27;657238;-73
2024/03/12 02:44:43;;;;;;;68.83;26.43;;;6.50;58.30;;;;;;4484171;27;656581;-74
2024/03/12 02:47:30;;;;;;;61.38;26.60;;;6.50;55.50;;;;;;4505754;27;657489;-73
2024/03/12 02:50:18;;;;;;;66.20;26.67;;;6.50;57.40;;;;;;4483713;27;656443;-74
2024/03/12 02:53:06;;;;;;;64.67;25.53;;;6.50;56.90;;;;;;4503205;27;657067;-74
2024/03/12 02:55:53;;;;;;;65.65;28.65;;;6.40;68.90;;;;;;4483644;27;656652;-74
2024/03/12 02:58:42;;;;;;;78.47;27.47;;;6.40;64.80;;;;;;4507641;27;657622;-74
2024/03/12 03:01:29;;;;;;;105.85;27.20;;;6.40;99.90;;;;;;4480860;27;657541;-74
2024/03/12 03:04:16;;;;;;;87.37;25.57;;;6.40;99.90;;;;;;4506111;27;657604;-73
2024/03/12 03:07:04;;;;;;;95.35;25.35;;;6.40;99.90;;;;;;4484732;27;656651;-74
2024/03/12 03:09:51;;;;;;;85.80;25.60;;;6.40;99.90;;;;;;4503633;27;657007;-74
2024/03/12 03:12:38;;;;;;;61.87;25.87;;;6.40;99.90;;;;;;4484221;27;657136;-74
2024/03/12 03:15:26;;;;;;;90.83;25.93;;;6.40;99.90;;;;;;4506620;27;656635;-74
2024/03/12 03:18:14;;;;;;;81.57;26.60;;;6.40;99.90;;;;;;4480074;27;656186;-74
2024/03/12 03:21:01;;;;;;;83.50;25.60;;;6.40;99.90;;;;;;4503418;27;656312;-74
2024/03/12 03:23:48;;;;;;;73.40;25.10;;;6.40;99.90;;;;;;4482649;27;657241;-73
2024/03/12 03:26:35;;;;;;;72.73;26.20;;;6.40;99.90;;;;;;4507208;27;657226;-73
2024/03/12 03:29:24;;;;;;;89.00;25.97;;;6.40;99.90;;;;;;4483922;27;656938;-73
2024/03/12 03:32:13;;;;;;;98.60;25.53;;;6.40;99.90;;;;;;4507072;27;656470;-73
2024/03/12 03:35:00;;;;;;;74.27;26.03;;;6.40;99.90;;;;;;4479880;27;657033;-73
2024/03/12 03:37:48;;;;;;;87.23;27.90;;;6.30;99.90;;;;;;4492636;27;656960;-73
2024/03/12 03:40:35;;;;;;;80.23;25.67;;;6.30;99.90;;;;;;4506411;27;657157;-73
2024/03/12 03:43:22;;;;;;;82.53;25.70;;;6.30;99.90;;;;;;4486028;27;657434;-73
2024/03/12 03:46:10;;;;;;;75.87;26.37;;;6.40;99.90;;;;;;4507168;27;657004;-73
2024/03/12 03:48:58;;;;;;;90.00;26.43;;;6.40;99.90;;;;;;4506726;27;655767;-73
2024/03/12 03:51:45;;;;;;;128.70;27.40;;;6.40;99.90;;;;;;4480013;27;656600;-73
2024/03/12 03:54:32;;;;;;;86.20;26.30;;;6.40;99.90;;;;;;4482909;27;658054;-73
2024/03/12 03:57:20;;;;;;;81.13;26.07;;;6.30;99.90;;;;;;4506055;27;656705;-73
2024/03/12 04:00:14;;;;;;;85.37;26.50;;;6.40;99.90;;;;;;4505866;27;656229;-73
2024/03/12 04:03:02;;;;;;;83.20;27.73;;;6.40;99.90;;;;;;4478857;27;657163;-74
2024/03/12 04:05:51;;;;;;;105.97;27.67;;;6.40;99.90;;;;;;4479085;27;657661;-74
2024/03/12 04:08:39;;;;;;;94.90;28.13;;;6.40;99.90;;;;;;4481744;27;657773;-74
2024/03/12 04:11:26;;;;;;;98.73;28.07;;;6.40;99.90;;;;;;4502127;27;656967;-74
2024/03/12 04:14:13;;;;;;;97.03;27.83;;;6.40;99.90;;;;;;4482133;27;657173;-74
2024/03/12 04:17:01;;;;;;;92.33;28.67;;;6.40;99.90;;;;;;4502963;27;656637;-73
2024/03/12 04:19:48;;;;;;;86.13;27.15;;;6.40;99.90;;;;;;4483179;27;656992;-73
2024/03/12 04:22:37;;;;;;;92.20;26.47;;;6.40;99.90;;;;;;4501253;27;657217;-73
2024/03/12 04:25:24;;;;;;;102.57;29.10;;;6.40;99.90;;;;;;4477898;27;657567;-74
2024/03/12 04:28:15;;;;;;;94.77;27.47;;;6.40;99.90;;;;;;4504842;27;657584;-74
2024/03/12 04:31:06;;;;;;;86.75;27.92;;;6.40;99.90;;;;;;4482332;27;656328;-74
2024/03/12 04:33:53;;;;;;;93.20;28.23;;;6.40;99.90;;;;;;4483407;27;657349;-73
2024/03/12 04:36:40;;;;;;;92.83;29.00;;;6.40;99.90;;;;;;4501694;27;657978;-74
2024/03/12 04:39:32;;;;;;;87.73;27.67;;;6.50;99.90;;;;;;4481253;27;656483;-73
2024/03/12 04:42:19;;;;;;;77.10;27.67;;;6.40;99.90;;;;;;4479233;27;657399;-73
2024/03/12 04:45:08;;;;;;;90.20;25.67;;;6.40;99.90;;;;;;4501378;27;656602;-73
2024/03/12 04:47:55;;;;;;;103.50;27.23;;;6.40;99.90;;;;;;4478367;27;657081;-73
2024/03/12 04:50:42;;;;;;;94.83;25.73;;;6.50;99.90;;;;;;4493986;27;657924;-73
2024/03/12 04:53:30;;;;;;;87.40;27.43;;;6.40;99.90;;;;;;4505970;27;656535;-73
2024/03/12 04:56:19;;;;;;;60.37;25.20;;;6.40;99.90;;;;;;4476815;28;656388;-73
2024/03/12 04:59:06;;;;;;;67.00;26.40;;;6.40;99.90;;;;;;4487798;28;657075;-73
2024/03/12 05:01:53;;;;;;;79.20;25.67;;;6.40;99.90;;;;;;4465384;28;656533;-73
2024/03/12 05:04:41;;;;;;;67.40;25.07;;;6.50;99.90;;;;;;4487847;28;657129;-73
2024/03/12 05:07:28;;;;;;;69.23;26.00;;;6.40;99.90;;;;;;4465197;28;656625;-73
2024/03/12 05:10:15;;;;;;;62.40;26.60;;;6.40;99.90;;;;;;4483659;28;657665;-73
2024/03/12 05:13:04;;;;;;;56.33;25.80;;;6.40;99.90;;;;;;4463751;28;657131;-73
2024/03/12 05:15:52;;;;;;;58.13;24.98;;;6.40;99.90;;;;;;4487808;28;656319;-73
2024/03/12 05:18:39;;;;;;;58.97;25.13;;;6.40;99.90;;;;;;4464765;28;656466;-73
2024/03/12 05:21:27;;;;;;;61.00;24.03;;;6.40;99.90;;;;;;4483616;28;656329;-73
2024/03/12 05:24:17;;;;;;;55.23;24.23;;;6.40;99.90;;;;;;4461245;28;658151;-73
2024/03/12 05:27:06;;;;;;;61.15;24.70;;;6.40;99.90;;;;;;4465983;27;657336;-73
2024/03/12 05:29:54;;;;;;;52.50;22.93;;;6.40;99.90;;;;;;4467776;27;657308;-73
2024/03/12 05:32:45;;;;;;;51.63;23.87;;;6.50;99.90;;;;;;4486599;27;657303;-73
2024/03/12 05:35:33;;;;;;;55.63;24.57;;;6.40;99.90;;;;;;4445662;27;656897;-73
2024/03/12 05:38:32;;;;;;;59.63;25.13;;;6.40;99.90;;;;;;4491038;27;656817;-73
2024/03/12 05:41:25;;;;;;;55.50;25.70;;;6.40;99.90;;;;;;4444863;27;657467;-73
2024/03/12 05:50:24;;;;;;;51.27;22.97;;;6.50;99.90;;;;;;4440830;27;658050;-73
2024/03/12 05:53:11;;;;;;;53.00;23.67;;;6.50;99.90;;;;;;4487079;27;656679;-73
2024/03/12 05:55:58;;;;;;;56.63;24.77;;;6.40;99.90;;;;;;4482988;27;656777;-73
2024/03/12 05:58:45;;;;;;;54.53;25.87;;;6.40;99.90;;;;;;4506194;27;656586;-73
2024/03/12 06:01:33;;;;;;;60.83;27.40;;;6.50;99.90;;;;;;4484131;27;657088;-73
2024/03/12 06:04:21;;;;;;;53.93;24.93;;;6.50;99.90;;;;;;4502345;27;657605;-73
2024/03/12 06:07:08;;;;;;;72.67;30.13;;;6.50;99.90;;;;;;4484799;27;656927;-73
2024/03/12 06:09:55;;;;;;;66.87;28.20;;;6.60;99.90;;;;;;4507208;27;658011;-73
2024/03/12 06:12:43;;;;;;;101.57;34.60;;;6.60;99.90;;;;;;4484424;27;656549;-73
2024/03/12 06:15:30;;;;;;;92.97;41.37;;;6.60;99.90;;;;;;4501958;27;659053;-73
2024/03/12 06:18:19;;;;;;;57.77;26.20;;;6.70;99.90;;;;;;4493502;27;656865;-73
2024/03/12 06:21:07;;;;;;;53.70;23.83;;;6.70;99.90;;;;;;4503855;27;657176;-73
2024/03/12 06:23:54;;;;;;;54.43;23.00;;;6.70;99.90;;;;;;4485046;27;657599;-73
2024/03/12 06:26:42;;;;;;;56.53;25.73;;;6.70;99.90;;;;;;4502922;27;656427;-73
2024/03/12 06:29:29;;;;;;;59.47;26.10;;;6.70;99.90;;;;;;4480167;27;657277;-73
2024/03/12 06:32:19;;;;;;;61.13;25.77;;;6.70;99.90;;;;;;4501276;27;656834;-73
2024/03/12 06:35:07;;;;;;;54.73;24.80;;;6.80;99.90;;;;;;4484267;27;656662;-73
2024/03/12 06:37:58;;;;;;;65.70;27.67;;;6.80;99.90;;;;;;4483846;27;656905;-73
2024/03/12 06:40:46;;;;;;;68.03;27.63;;;6.90;99.90;;;;;;4479963;27;657380;-72
2024/03/12 06:43:39;;;;;;;65.90;24.90;;;6.90;99.90;;;;;;4484193;27;657267;-73
2024/03/12 06:46:26;;;;;;;78.90;29.23;;;6.90;99.90;;;;;;4483952;27;657059;-73
2024/03/12 06:49:14;;;;;;;58.53;25.47;;;6.90;99.90;;;;;;4479463;27;656645;-73
2024/03/12 06:52:02;;;;;;;68.50;27.83;;;7.00;99.90;;;;;;4502403;27;657187;-73
2024/03/12 06:54:52;;;;;;;82.73;31.53;;;7.00;99.90;;;;;;4483900;27;657041;-73
2024/03/12 06:57:39;;;;;;;99.83;37.67;;;7.00;96.60;;;;;;4484348;27;656997;-73
2024/03/12 07:00:32;;;;;;;54.43;24.03;;;7.10;90.70;;;;;;4507532;27;656926;-73
2024/03/12 07:03:21;;;;;;;56.97;23.57;;;7.10;86.00;;;;;;4484018;27;656727;-73
2024/03/12 07:06:08;;;;;;;63.10;29.17;;;7.10;45.70;;;;;;4484623;27;657406;-73
2024/03/12 07:09:01;;;;;;;59.57;25.77;;;7.20;50.70;;;;;;4503164;27;658342;-73
2024/03/12 07:11:49;;;;;;;48.27;22.73;;;7.30;41.50;;;;;;4457211;27;656471;-73
2024/03/12 07:14:42;;;;;;;48.47;19.83;;;7.20;19.20;;;;;;4503341;27;656847;-73
2024/03/12 07:17:29;;;;;;;48.83;21.90;;;7.30;4.50;;;;;;4477919;27;656958;-73
2024/03/12 07:20:20;;;;;;;54.33;24.57;;;7.40;1.00;;;;;;4504609;27;655566;-73
2024/03/12 07:23:08;;;;;;;67.77;28.37;;;7.40;1.00;;;;;;4474493;27;655823;-73
2024/03/12 07:25:56;;;;;;;47.38;20.60;;;7.40;1.00;;;;;;4504470;27;657061;-73
2024/03/12 07:28:45;;;;;;;45.47;19.57;;;7.50;1.00;;;;;;4485710;27;656634;-73
2024/03/12 07:31:33;;;;;;;56.97;25.00;;;7.50;1.00;;;;;;4500414;27;655898;-73
2024/03/12 07:34:21;;;;;;;51.67;22.83;;;7.60;1.00;;;;;;4504585;27;656997;-73
2024/03/12 07:37:08;;;;;;;48.60;21.17;;;7.50;1.00;;;;;;4485019;27;655753;-73
2024/03/12 07:39:56;;;;;;;51.03;22.20;;;7.50;1.00;;;;;;4504252;27;656061;-74
2024/03/12 07:42:43;;;;;;;43.60;20.53;;;7.50;1.00;;;;;;4483748;27;655333;-73
2024/03/12 07:45:32;;;;;;;47.93;19.83;;;7.50;1.00;;;;;;4503980;27;655485;-73
2024/03/12 07:48:22;;;;;;;43.13;19.50;;;7.50;1.00;;;;;;4480051;27;656366;-73
2024/03/12 07:51:09;;;;;;;52.30;19.93;;;7.50;1.00;;;;;;4484429;27;655661;-73
2024/03/12 07:53:59;;;;;;;50.63;20.73;;;7.60;1.00;;;;;;4504349;27;655580;-73
2024/03/12 07:56:49;;;;;;;43.43;18.40;;;7.50;1.00;;;;;;4480156;27;655999;-73
2024/03/12 07:59:36;;;;;;;117.27;42.67;;;7.40;1.00;;;;;;4484489;27;655629;-73
2024/03/12 08:02:25;;;;;;;74.47;29.77;;;7.40;1.00;;;;;;4482937;27;656548;-73
2024/03/12 08:05:12;;;;;;;158.60;55.83;;;7.50;1.00;;;;;;4498365;27;655489;-73
2024/03/12 08:08:00;;;;;;;82.10;31.70;;;7.40;1.00;;;;;;4505950;27;656720;-73
2024/03/12 08:10:47;;;;;;;71.30;27.30;;;7.50;1.00;;;;;;4506968;27;656020;-72
2024/03/12 08:13:34;;;;;;;39.87;17.70;;;7.60;1.00;;;;;;4484341;27;655812;-73
2024/03/12 08:16:21;;;;;;;38.63;18.60;;;7.60;1.00;;;;;;4503294;27;655966;-73
2024/03/12 08:19:11;;;;;;;38.50;18.10;;;7.60;1.00;;;;;;4481262;27;655245;-72
2024/03/12 08:21:58;;;;;;;48.10;24.63;;;7.60;1.00;;;;;;4484167;27;655179;-73
2024/03/12 08:24:45;;;;;;;47.00;21.90;;;7.70;1.00;;;;;;4505982;27;655826;-73
2024/03/12 08:27:32;;;;;;;33.47;17.20;;;7.70;1.00;;;;;;4488076;27;655800;-73
2024/03/12 08:30:20;;;;;;;30.13;14.27;;;7.70;99.90;;;;;;4506855;27;655506;-73
2024/03/12 08:33:07;;;;;;;29.23;14.40;;;7.70;99.90;;;;;;4505774;27;656290;-73
2024/03/12 08:35:56;;;;;;;25.10;13.57;;;7.80;99.90;;;;;;4482793;27;656444;-72
2024/03/12 08:38:43;;;;;;;31.53;13.50;;;7.80;99.90;;;;;;4482123;27;656734;-73
2024/03/12 08:41:32;;;;;;;30.30;14.83;;;7.80;99.90;;;;;;4505590;27;657933;-72
2024/03/12 08:44:20;;;;;;;36.77;16.87;;;7.90;99.90;;;;;;4478665;27;656779;-73
2024/03/12 08:47:08;;;;;;;37.75;20.40;;;7.80;99.90;;;;;;4482457;27;656687;-73
2024/03/12 08:49:55;;;;;;;35.60;17.07;;;7.80;99.90;;;;;;4504854;27;656652;-73
2024/03/12 08:52:44;;;;;;;33.87;16.00;;;7.80;99.90;;;;;;4482643;27;657480;-73
2024/03/12 08:55:31;;;;;;;37.27;18.03;;;7.90;99.90;;;;;;4506010;27;656464;-73
2024/03/12 08:58:18;;;;;;;61.57;25.03;;;7.60;43.70;;;;;;4482604;27;657133;-73
2024/03/12 09:01:05;;;;;;;46.17;20.73;;;7.70;99.90;;;;;;4506030;27;657270;-72
2024/03/12 09:03:53;;;;;;;43.77;20.63;;;7.80;99.90;;;;;;4487155;27;656507;-73
2024/03/12 09:06:40;;;;;;;55.27;22.33;;;7.90;99.90;;;;;;4510166;27;657772;-72
2024/03/12 09:09:29;;;;;;;40.37;17.37;;;8.00;99.90;;;;;;4486686;27;657672;-73
2024/03/12 09:12:16;;;;;;;43.50;19.77;;;8.10;99.90;;;;;;4509338;27;656730;-73
2024/03/12 09:15:08;;;;;;;36.93;17.10;;;8.10;99.90;;;;;;4486777;27;656813;-73
2024/03/12 09:17:55;;;;;;;31.30;16.03;;;8.20;99.90;;;;;;4482822;27;658162;-73
2024/03/12 09:20:43;;;;;;;38.40;18.17;;;8.20;99.90;;;;;;4486619;27;656811;-73
2024/03/12 09:23:30;;;;;;;61.90;26.73;;;8.10;22.60;;;;;;4506374;27;658025;-73
2024/03/12 09:26:19;;;;;;;47.33;18.70;;;8.20;3.60;;;;;;4496546;27;657330;-73
2024/03/12 09:29:06;;;;;;;31.57;14.40;;;8.30;53.10;;;;;;4506672;27;655082;-72
2024/03/12 09:31:53;;;;;;;29.03;13.80;;;8.40;99.90;;;;;;4486267;27;656317;-73
2024/03/12 09:34:42;;;;;;;30.27;14.43;;;8.70;1.00;;;;;;4509228;27;656797;-73
2024/03/12 09:37:29;;;;;;;35.93;14.87;;;8.80;1.00;;;;;;4483561;27;656347;-73
2024/03/12 09:40:17;;;;;;;28.67;13.67;;;8.90;1.00;;;;;;4508136;27;655242;-72
2024/03/12 09:43:05;;;;;;;23.83;11.83;;;9.00;99.90;;;;;;4483317;27;656024;-72
2024/03/12 09:45:53;;;;;;;25.20;12.07;;;8.90;36.20;;;;;;4485638;27;657005;-72
2024/03/12 09:48:42;;;;;;;21.60;11.80;;;8.90;99.90;;;;;;4504675;27;657127;-72
2024/03/12 09:51:30;;;;;;;27.30;11.70;;;8.80;99.90;;;;;;4482000;27;656746;-73
2024/03/12 09:54:18;;;;;;;21.57;11.27;;;8.70;1.00;;;;;;4485048;27;657067;-73
2024/03/12 09:57:05;;;;;;;22.70;11.00;;;8.50;1.00;;;;;;4504042;27;656908;-72
2024/03/12 09:59:54;;;;;;;24.77;11.00;;;8.80;99.90;;;;;;4501684;27;655402;-73
2024/03/12 10:02:41;;;;;;;20.63;10.87;;;8.90;1.00;;;;;;4507209;27;656880;-73
2024/03/12 10:05:28;;;;;;;18.87;10.13;;;9.00;1.00;;;;;;4486012;27;655766;-72
2024/03/12 10:08:16;;;;;;;19.87;9.97;;;8.70;1.00;;;;;;4504597;27;655997;-72
2024/03/12 10:11:07;;;;;;;22.17;10.83;;;8.80;1.00;;;;;;4487433;27;654463;-72
2024/03/12 10:13:56;;;;;;;17.37;9.03;;;8.70;1.00;;;;;;4483403;27;655505;-72
2024/03/12 10:16:45;;;;;;;19.97;10.33;;;8.70;1.00;;;;;;4486853;27;655136;-72
2024/03/12 10:19:34;;;;;;;21.40;11.00;;;8.40;99.90;;;;;;4495804;27;655397;-72
2024/03/12 10:22:21;;;;;;;22.93;11.23;;;8.50;99.90;;;;;;4506075;27;656589;-72
2024/03/12 10:25:10;;;;;;;21.20;10.53;;;8.50;99.90;;;;;;4484373;27;657217;-72
2024/03/12 10:27:58;;;;;;;19.17;10.27;;;8.50;99.90;;;;;;4500883;27;657038;-72
2024/03/12 10:30:45;;;;;;;21.03;11.23;;;8.40;1.00;;;;;;4503485;27;657063;-72
2024/03/12 10:33:34;;;;;;;20.00;10.80;;;8.50;1.00;;;;;;4485645;27;655398;-72
2024/03/12 10:36:29;;;;;;;24.03;11.90;;;8.50;1.00;;;;;;4508508;27;655354;-72
2024/03/12 10:39:25;;;;;;;23.13;11.50;;;8.50;1.00;;;;;;4481544;27;656294;-72
2024/03/12 10:42:13;;;;;;;24.83;11.50;;;8.30;1.00;;;;;;4462160;27;656224;-72
2024/03/12 10:45:00;;;;;;;21.10;11.60;;;8.30;1.00;;;;;;4504599;27;657088;-72
2024/03/12 10:47:48;;;;;;;24.10;11.57;;;8.30;1.00;;;;;;4499582;27;656056;-72
2024/03/12 10:50:38;;;;;;;22.83;11.30;;;8.30;1.00;;;;;;4503954;27;656647;-72
2024/03/12 10:53:26;;;;;;;26.00;13.07;;;8.30;1.00;;;;;;4480679;27;656454;-72
2024/03/12 10:56:13;;;;;;;26.10;13.53;;;8.30;1.00;;;;;;4467472;27;655592;-72
2024/03/12 10:59:00;;;;;;;29.70;13.23;;;8.30;1.00;;;;;;4487160;27;655888;-72
2024/03/12 11:01:48;;;;;;;23.48;13.60;;;8.20;1.00;;;;;;4467531;27;656548;-72
2024/03/12 11:04:35;;;;;;;26.77;14.60;;;8.30;99.90;;;;;;4487030;27;655776;-72
2024/03/12 11:07:24;;;;;;;26.15;14.55;;;8.40;1.00;;;;;;4466197;27;657172;-72
2024/03/12 11:10:12;;;;;;;33.90;18.07;;;8.50;90.70;;;;;;4490520;27;655930;-72
2024/03/12 11:13:00;;;;;;;45.13;21.50;;;8.50;1.00;;;;;;4466452;27;657199;-72
2024/03/12 11:15:47;;;;;;;47.72;21.27;;;8.40;1.00;;;;;;4467673;27;655737;-72
2024/03/12 11:18:35;;;;;;;50.00;22.90;;;8.40;1.00;;;;;;4486644;27;655939;-72
2024/03/12 11:21:24;;;;;;;55.97;25.70;;;8.20;98.70;;;;;;4478025;27;655366;-72
2024/03/12 11:24:13;;;;;;;61.07;28.70;;;8.10;99.90;;;;;;4487831;27;656703;-72
2024/03/12 11:27:01;;;;;;;60.23;29.17;;;8.00;99.90;;;;;;4465569;27;657093;-72
2024/03/12 11:30:14;;;;;;;61.20;27.27;;;8.10;99.90;;;;;;4465917;27;656552;-72
2024/03/12 11:33:02;;;;;;;62.90;27.67;;;8.10;1.00;;;;;;4464912;27;656366;-72
2024/03/12 11:35:50;;;;;;;69.70;29.77;;;8.00;1.00;;;;;;4464738;27;655933;-72
2024/03/12 11:38:38;;;;;;;55.40;21.17;;;8.10;1.00;;;;;;4484598;27;655343;-72
2024/03/12 11:41:26;;;;;;;62.97;29.03;;;8.00;1.00;;;;;;4486145;27;656643;-72
2024/03/12 11:44:44;;;;;;;69.47;30.63;;;7.90;1.00;;;;;;4467121;27;655912;-72
2024/03/12 11:47:34;;;;;;;35.17;14.60;;;7.90;1.00;;;;;;4463280;27;655673;-72
2024/03/12 11:50:31;;;;;;;58.33;27.50;;;8.00;1.00;;;;;;4467662;27;655786;-72
2024/03/12 11:53:20;;;;;;;61.40;27.73;;;7.90;1.00;;;;;;4461943;27;655385;-72
2024/03/12 11:56:15;;;;;;;53.80;26.90;;;7.90;1.00;;;;;;4482941;27;655976;-72
2024/03/12 11:59:07;;;;;;;38.33;20.83;;;8.00;1.00;;;;;;4466131;27;655935;-72
2024/03/12 12:01:55;;;;;;;37.00;20.80;;;8.00;1.00;;;;;;4483711;27;655390;-72
2024/03/12 12:04:42;;;;;;;36.30;20.07;;;8.00;1.00;;;;;;4497577;27;656197;-72
2024/03/12 12:07:30;;;;;;;32.30;19.27;;;8.00;1.00;;;;;;4507229;27;655998;-72
2024/03/12 12:10:17;;;;;;;33.30;18.17;;;8.00;1.00;;;;;;4507111;27;655180;-72
2024/03/12 12:13:14;;;;;;;30.10;17.07;;;7.80;1.00;;;;;;4479802;27;656447;-72
2024/03/12 12:16:04;;;;;;;36.80;19.97;;;8.10;1.00;;;;;;4479819;27;655726;-72
2024/03/12 12:18:51;;;;;;;43.77;20.43;;;8.10;1.00;;;;;;4479773;27;655620;-72
2024/03/12 12:21:38;;;;;;;40.47;19.87;;;8.10;1.00;;;;;;4483695;27;656255;-72
2024/03/12 12:24:25;;;;;;;38.83;18.00;;;8.00;1.00;;;;;;4502827;27;656405;-72
2024/03/12 12:27:13;;;;;;;34.83;17.90;;;8.00;1.00;;;;;;4483815;27;656029;-72
2024/03/12 12:30:00;;;;;;;30.97;15.57;;;8.00;1.00;;;;;;4501553;27;656526;-72
2024/03/12 12:32:50;;;;;;;28.83;15.93;;;7.80;1.00;;;;;;4493462;27;655729;-72
2024/03/12 12:35:41;;;;;;;32.57;17.73;;;7.80;1.00;;;;;;4484503;27;655193;-72
2024/03/12 12:38:28;;;;;;;35.33;18.50;;;8.00;1.00;;;;;;4486389;27;656108;-72
2024/03/12 12:41:21;;;;;;;30.60;16.40;;;8.00;1.00;;;;;;4510675;27;657007;-72
2024/03/12 12:44:10;;;;;;;30.53;16.50;;;8.10;1.00;;;;;;4460154;27;656100;-72
2024/03/12 12:46:58;;;;;;;32.20;16.80;;;8.10;1.00;;;;;;4488813;27;656044;-72
2024/03/12 12:49:54;;;;;;;30.73;16.87;;;8.20;1.00;;;;;;4507015;27;656781;-72
2024/03/12 12:52:41;;;;;;;26.57;15.33;;;8.20;1.00;;;;;;4486851;27;655951;-72
2024/03/12 12:55:28;;;;;;;32.23;16.80;;;8.10;1.00;;;;;;4487212;27;656385;-72
2024/03/12 12:58:17;;;;;;;32.80;17.87;;;8.20;1.00;;;;;;4507208;27;655714;-72
2024/03/12 13:01:06;;;;;;;38.93;18.53;;;8.20;1.00;;;;;;4487984;27;655964;-72
2024/03/12 13:03:53;;;;;;;39.20;19.80;;;8.20;1.00;;;;;;4487875;27;655499;-72
2024/03/12 13:06:43;;;;;;;45.27;21.67;;;8.20;1.00;;;;;;4506560;27;655775;-72
2024/03/12 13:09:31;;;;;;;45.43;21.33;;;8.10;1.00;;;;;;4483276;27;656997;-72
2024/03/12 13:12:18;;;;;;;51.80;21.97;;;8.20;1.00;;;;;;4487007;27;655493;-72
2024/03/12 13:15:06;;;;;;;45.23;21.40;;;8.00;1.00;;;;;;4509849;27;656562;-72
2024/03/12 13:17:54;;;;;;;37.15;17.15;;;8.20;1.00;;;;;;4488038;27;655476;-72
2024/03/12 13:20:42;;;;;;;34.07;17.90;;;8.30;1.00;;;;;;4506725;27;656224;-72
2024/03/12 13:23:30;;;;;;;31.90;16.20;;;8.40;1.00;;;;;;4487904;27;655719;-73
2024/03/12 13:26:18;;;;;;;36.47;17.40;;;8.30;1.00;;;;;;4489555;27;655715;-73
2024/03/12 13:29:05;;;;;;;35.83;17.57;;;8.30;1.00;;;;;;4510537;27;655951;-73
2024/03/12 13:31:53;;;;;;;44.07;18.90;;;8.40;1.00;;;;;;4487564;27;655312;-73
2024/03/12 13:34:40;;;;;;;43.13;18.47;;;8.40;1.00;;;;;;4506316;27;655880;-72
2024/03/12 13:37:29;;;;;;;45.50;19.10;;;8.40;1.00;;;;;;4487306;27;655552;-72
2024/03/12 13:40:19;;;;;;;48.53;19.77;;;8.40;1.00;;;;;;4506484;27;656071;-72
2024/03/12 13:43:07;;;;;;;48.80;19.57;;;8.40;1.00;;;;;;4483059;27;656432;-72
2024/03/12 13:45:56;;;;;;;49.37;20.87;;;8.40;1.00;;;;;;4487282;27;655757;-72
2024/03/12 13:48:44;;;;;;;51.73;21.40;;;8.20;1.00;;;;;;4486367;27;656053;-72
2024/03/12 13:51:31;;;;;;;49.70;21.20;;;8.10;1.00;;;;;;4506237;27;656104;-72
2024/03/12 13:54:18;;;;;;;56.63;23.57;;;8.20;1.00;;;;;;4486661;27;655762;-72
2024/03/12 13:57:06;;;;;;;59.77;23.97;;;8.00;1.00;;;;;;4509801;27;656587;-71
2024/03/12 13:59:55;;;;;;;53.13;22.97;;;8.00;1.00;;;;;;4481796;27;655868;-72
2024/03/12 14:02:43;;;;;;;60.03;25.55;;;7.90;1.00;;;;;;4489445;27;655796;-72
2024/03/12 14:05:31;;;;;;;66.40;25.30;;;7.80;1.00;;;;;;4509357;27;656948;-72
2024/03/12 14:08:19;;;;;;;66.90;28.20;;;7.90;1.00;;;;;;4485421;27;656360;-72
2024/03/12 14:11:07;;;;;;;66.57;29.57;;;7.80;1.00;;;;;;4504755;27;655617;-72
2024/03/12 14:13:56;;;;;;;64.03;26.67;;;7.70;1.00;;;;;;4482159;27;656506;-72
2024/03/12 14:16:43;;;;;;;69.83;27.50;;;7.80;31.80;;;;;;4485940;27;655794;-72
2024/03/12 14:19:30;;;;;;;67.90;28.23;;;7.80;56.60;;;;;;4506900;27;657481;-72
2024/03/12 14:22:19;;;;;;;72.23;28.07;;;7.80;71.00;;;;;;4484224;27;656452;-72
2024/03/12 14:25:07;;;;;;;66.43;27.40;;;7.90;47.90;;;;;;4503463;27;656495;-72